createdAt,value
2018-02-27T00:00:13.951Z,1011.41
2018-02-27T00:01:14.008Z,1011.41
2018-02-27T00:02:13.967Z,1011.41
2018-02-27T00:03:13.979Z,1011.38
2018-02-27T00:04:13.981Z,1011.37
2018-02-27T00:05:13.988Z,1011.38
2018-02-27T00:06:14.051Z,1011.41
2018-02-27T00:07:14.004Z,1011.37
2018-02-27T00:08:14.013Z,1011.39
2018-02-27T00:09:14.020Z,1011.39
2018-02-27T00:10:14.026Z,1011.39
2018-02-27T00:11:14.134Z,1011.38
2018-02-27T00:12:14.042Z,1011.36
2018-02-27T00:13:14.051Z,1011.37
2018-02-27T00:14:14.055Z,1011.4
2018-02-27T00:15:14.063Z,1011.4
2018-02-27T00:16:14.072Z,1011.38
2018-02-27T00:17:14.077Z,1011.42
2018-02-27T00:18:14.086Z,1011.43
2018-02-27T00:19:14.093Z,1011.38
2018-02-27T00:20:14.100Z,1011.41
2018-02-27T00:21:14.107Z,1011.39
2018-02-27T00:22:14.116Z,1011.4
2018-02-27T00:23:14.124Z,1011.43
2018-02-27T00:24:14.132Z,1011.4
2018-02-27T00:25:14.137Z,1011.4
2018-02-27T00:26:14.195Z,1011.42
2018-02-27T00:27:14.155Z,1011.4
2018-02-27T00:28:14.162Z,1011.41
2018-02-27T00:29:14.168Z,1011.43
2018-02-27T00:30:14.177Z,1011.41
2018-02-27T00:31:14.233Z,1011.42
2018-02-27T00:32:14.189Z,1011.41
2018-02-27T00:33:14.197Z,1011.4
2018-02-27T00:34:14.203Z,1011.39
2018-02-27T00:35:14.213Z,1011.41
2018-02-27T00:36:14.269Z,1011.43
2018-02-27T00:37:14.227Z,1011.42
2018-02-27T00:38:14.233Z,1011.41
2018-02-27T00:39:14.242Z,1011.42
2018-02-27T00:40:14.252Z,1011.43
2018-02-27T00:41:14.259Z,1011.43
2018-02-27T00:42:14.265Z,1011.37
2018-02-27T00:43:14.276Z,1011.4
2018-02-27T00:44:14.281Z,1011.41
2018-02-27T00:45:14.286Z,1011.43
2018-02-27T00:46:14.294Z,1011.42
2018-02-27T00:47:14.301Z,1011.37
2018-02-27T00:48:14.312Z,1011.38
2018-02-27T00:49:14.315Z,1011.37
2018-02-27T00:50:14.321Z,1011.39
2018-02-27T00:51:14.332Z,1011.35
2018-02-27T00:52:14.339Z,1011.35
2018-02-27T00:53:14.345Z,1011.38
2018-02-27T00:54:14.353Z,1011.35
2018-02-27T00:55:14.359Z,1011.36
2018-02-27T00:56:14.366Z,1011.34
2018-02-27T00:57:14.374Z,1011.34
2018-02-27T00:58:14.380Z,1011.37
2018-02-27T00:59:14.390Z,1011.36
2018-02-27T01:00:14.396Z,1011.35
2018-02-27T01:01:14.404Z,1011.34
2018-02-27T01:02:14.410Z,1011.36
2018-02-27T01:03:14.418Z,1011.36
2018-02-27T01:04:14.428Z,1011.31
2018-02-27T01:05:14.431Z,1011.24
2018-02-27T01:06:14.492Z,1011.26
2018-02-27T01:07:14.447Z,1011.31
2018-02-27T01:08:14.455Z,1011.26
2018-02-27T01:09:14.461Z,1011.25
2018-02-27T01:10:14.468Z,1011.28
2018-02-27T01:11:14.481Z,1011.23
2018-02-27T01:12:14.483Z,1011.23
2018-02-27T01:13:14.490Z,1011.26
2018-02-27T01:14:14.500Z,1011.27
2018-02-27T01:15:14.506Z,1011.27
2018-02-27T01:16:14.564Z,1011.26
2018-02-27T01:17:14.520Z,1011.28
2018-02-27T01:18:14.528Z,1011.26
2018-02-27T01:19:14.537Z,1011.23
2018-02-27T01:20:14.542Z,1011.25
2018-02-27T01:21:14.600Z,1011.26
2018-02-27T01:22:14.558Z,1011.22
2018-02-27T01:23:14.563Z,1011.2
2018-02-27T01:24:14.572Z,1011.23
2018-02-27T01:25:14.581Z,1011.23
2018-02-27T01:26:14.637Z,1011.22
2018-02-27T01:27:14.593Z,1011.22
2018-02-27T01:28:14.601Z,1011.25
2018-02-27T01:29:14.608Z,1011.21
2018-02-27T01:30:14.617Z,1011.19
2018-02-27T01:31:14.674Z,1011.22
2018-02-27T01:32:14.629Z,1011.18
2018-02-27T01:33:14.636Z,1011.2
2018-02-27T01:34:14.643Z,1011.2
2018-02-27T01:35:14.650Z,1011.11
2018-02-27T01:36:14.709Z,1011.14
2018-02-27T01:37:14.665Z,1011.13
2018-02-27T01:38:14.677Z,1011.13
2018-02-27T01:39:14.679Z,1011.13
2018-02-27T01:40:14.689Z,1011.12
2018-02-27T01:41:14.745Z,1011.11
2018-02-27T01:42:14.701Z,1011.15
2018-02-27T01:43:14.709Z,1011.1
2018-02-27T01:44:14.716Z,1011.06
2018-02-27T01:45:14.723Z,1011.13
2018-02-27T01:46:14.779Z,1011.13
2018-02-27T01:47:14.740Z,1011.06
2018-02-27T01:48:14.755Z,1011.1
2018-02-27T01:49:14.752Z,1011.08
2018-02-27T01:50:14.759Z,1011.07
2018-02-27T01:51:14.766Z,1011.04
2018-02-27T01:52:14.775Z,1011.02
2018-02-27T01:53:14.781Z,1011.01
2018-02-27T01:54:14.789Z,1010.99
2018-02-27T01:55:14.794Z,1011
2018-02-27T01:56:14.804Z,1010.97
2018-02-27T01:57:14.809Z,1011.01
2018-02-27T01:58:14.816Z,1011.03
2018-02-27T01:59:14.824Z,1011
2018-02-27T02:00:14.831Z,1011.01
2018-02-27T02:01:14.839Z,1011
2018-02-27T02:02:14.845Z,1011.01
2018-02-27T02:03:14.852Z,1010.99
2018-02-27T02:04:14.860Z,1010.99
2018-02-27T02:05:14.866Z,1011.01
2018-02-27T02:06:14.924Z,1011
2018-02-27T02:07:14.880Z,1010.97
2018-02-27T02:08:14.945Z,1010.97
2018-02-27T02:09:14.894Z,1010.97
2018-02-27T02:10:14.903Z,1010.96
2018-02-27T02:11:14.910Z,1010.93
2018-02-27T02:12:14.917Z,1010.9
2018-02-27T02:13:14.924Z,1010.87
2018-02-27T02:14:14.933Z,1010.86
2018-02-27T02:15:14.937Z,1010.88
2018-02-27T02:16:14.994Z,1010.87
2018-02-27T02:17:14.951Z,1010.89
2018-02-27T02:18:14.959Z,1010.88
2018-02-27T02:19:14.966Z,1010.86
2018-02-27T02:20:14.973Z,1010.83
2018-02-27T02:21:15.030Z,1010.81
2018-02-27T02:22:14.986Z,1010.79
2018-02-27T02:23:14.995Z,1010.75
2018-02-27T02:24:15.003Z,1010.74
2018-02-27T02:25:15.011Z,1010.74
2018-02-27T02:26:15.065Z,1010.76
2018-02-27T02:27:15.022Z,1010.76
2018-02-27T02:28:15.031Z,1010.73
2018-02-27T02:29:15.036Z,1010.72
2018-02-27T02:30:15.045Z,1010.71
2018-02-27T02:31:15.056Z,1010.69
2018-02-27T02:32:15.058Z,1010.69
2018-02-27T02:33:15.065Z,1010.73
2018-02-27T02:34:15.083Z,1010.69
2018-02-27T02:35:15.078Z,1010.66
2018-02-27T02:36:15.092Z,1010.66
2018-02-27T02:37:15.091Z,1010.66
2018-02-27T02:38:15.101Z,1010.64
2018-02-27T02:39:15.106Z,1010.62
2018-02-27T02:40:15.114Z,1010.62
2018-02-27T02:41:15.121Z,1010.63
2018-02-27T02:42:15.128Z,1010.59
2018-02-27T02:43:15.135Z,1010.59
2018-02-27T02:44:15.143Z,1010.57
2018-02-27T02:45:15.148Z,1010.55
2018-02-27T02:46:15.155Z,1010.51
2018-02-27T02:47:15.163Z,1010.51
2018-02-27T02:48:15.171Z,1010.52
2018-02-27T02:49:15.178Z,1010.49
2018-02-27T02:50:15.185Z,1010.54
2018-02-27T02:51:15.192Z,1010.53
2018-02-27T02:52:15.218Z,1010.51
2018-02-27T02:53:15.205Z,1010.52
2018-02-27T02:54:15.213Z,1010.53
2018-02-27T02:55:15.219Z,1010.49
2018-02-27T02:56:15.227Z,1010.52
2018-02-27T02:57:15.234Z,1010.54
2018-02-27T02:58:15.240Z,1010.54
2018-02-27T02:59:15.246Z,1010.52
2018-02-27T03:00:15.255Z,1010.51
2018-02-27T03:01:15.260Z,1010.52
2018-02-27T03:02:15.268Z,1010.57
2018-02-27T03:03:15.274Z,1010.51
2018-02-27T03:04:15.283Z,1010.56
2018-02-27T03:05:15.289Z,1010.5
2018-02-27T03:06:15.295Z,1010.5
2018-02-27T03:07:15.301Z,1010.51
2018-02-27T03:08:15.308Z,1010.52
2018-02-27T03:09:15.315Z,1010.58
2018-02-27T03:10:15.322Z,1010.53
2018-02-27T03:11:15.331Z,1010.51
2018-02-27T03:12:15.337Z,1010.48
2018-02-27T03:13:15.343Z,1010.52
2018-02-27T03:14:15.350Z,1010.5
2018-02-27T03:15:15.357Z,1010.5
2018-02-27T03:16:15.365Z,1010.48
2018-02-27T03:17:15.371Z,1010.5
2018-02-27T03:18:15.377Z,1010.47
2018-02-27T03:19:15.385Z,1010.45
2018-02-27T03:20:15.391Z,1010.45
2018-02-27T03:21:15.401Z,1010.43
2018-02-27T03:22:15.405Z,1010.43
2018-02-27T03:23:15.413Z,1010.42
2018-02-27T03:24:15.418Z,1010.43
2018-02-27T03:25:15.427Z,1010.45
2018-02-27T03:26:15.432Z,1010.45
2018-02-27T03:27:15.440Z,1010.5
2018-02-27T03:28:15.447Z,1010.47
2018-02-27T03:29:15.456Z,1010.41
2018-02-27T03:30:15.462Z,1010.42
2018-02-27T03:31:15.472Z,1010.38
2018-02-27T03:32:15.474Z,1010.39
2018-02-27T03:33:15.481Z,1010.36
2018-02-27T03:34:15.497Z,1010.32
2018-02-27T03:35:15.494Z,1010.34
2018-02-27T03:36:15.501Z,1010.32
2018-02-27T03:37:15.560Z,1010.33
2018-02-27T03:38:15.515Z,1010.29
2018-02-27T03:39:15.523Z,1010.31
2018-02-27T03:40:15.529Z,1010.29
2018-02-27T03:41:15.539Z,1010.18
2018-02-27T03:42:15.542Z,1010.28
2018-02-27T03:43:15.548Z,1010.24
2018-02-27T03:44:15.556Z,1010.25
2018-02-27T03:45:15.562Z,1010.26
2018-02-27T03:46:15.569Z,1010.24
2018-02-27T03:47:15.625Z,1010.22
2018-02-27T03:48:15.584Z,1010.19
2018-02-27T03:49:15.590Z,1010.25
2018-02-27T03:50:15.595Z,1010.24
2018-02-27T03:51:15.604Z,1010.22
2018-02-27T03:52:15.669Z,1010.19
2018-02-27T03:53:15.616Z,1010.22
2018-02-27T03:54:15.626Z,1010.2
2018-02-27T03:55:15.629Z,1010.22
2018-02-27T03:56:15.637Z,1010.23
2018-02-27T03:57:15.644Z,1010.2
2018-02-27T03:58:15.651Z,1010.2
2018-02-27T03:59:15.656Z,1010.2
2018-02-27T04:00:15.663Z,1010.22
2018-02-27T04:01:15.671Z,1010.21
2018-02-27T04:02:15.678Z,1010.22
2018-02-27T04:03:15.684Z,1010.21
2018-02-27T04:04:15.689Z,1010.23
2018-02-27T04:05:15.698Z,1010.22
2018-02-27T04:06:15.704Z,1010.22
2018-02-27T04:07:15.710Z,1010.21
2018-02-27T04:08:15.778Z,1010.26
2018-02-27T04:09:15.724Z,1010.22
2018-02-27T04:10:15.731Z,1010.23
2018-02-27T04:11:15.738Z,1010.22
2018-02-27T04:12:15.744Z,1010.24
2018-02-27T04:13:15.752Z,1010.24
2018-02-27T04:14:15.758Z,1010.22
2018-02-27T04:15:15.765Z,1010.25
2018-02-27T04:16:15.772Z,1010.24
2018-02-27T04:17:15.782Z,1010.24
2018-02-27T04:18:15.786Z,1010.26
2018-02-27T04:19:15.791Z,1010.24
2018-02-27T04:20:15.798Z,1010.23
2018-02-27T04:21:15.806Z,1010.22
2018-02-27T04:22:15.814Z,1010.23
2018-02-27T04:23:15.819Z,1010.23
2018-02-27T04:24:15.825Z,1010.21
2018-02-27T04:25:15.834Z,1010.21
2018-02-27T04:26:15.842Z,1010.23
2018-02-27T04:27:15.845Z,1010.25
2018-02-27T04:28:15.853Z,1010.21
2018-02-27T04:29:15.862Z,1010.23
2018-02-27T04:30:15.867Z,1010.25
2018-02-27T04:31:15.874Z,1010.26
2018-02-27T04:32:15.880Z,1010.27
2018-02-27T04:33:15.888Z,1010.25
2018-02-27T04:34:15.892Z,1010.25
2018-02-27T04:35:15.899Z,1010.24
2018-02-27T04:36:15.908Z,1010.23
2018-02-27T04:37:15.914Z,1010.24
2018-02-27T04:38:15.920Z,1010.27
2018-02-27T04:39:15.928Z,1010.23
2018-02-27T04:40:15.934Z,1010.26
2018-02-27T04:41:15.938Z,1010.23
2018-02-27T04:42:15.949Z,1010.26
2018-02-27T04:43:15.953Z,1010.28
2018-02-27T04:44:15.960Z,1010.27
2018-02-27T04:45:15.968Z,1010.23
2018-02-27T04:46:15.976Z,1010.24
2018-02-27T04:47:15.982Z,1010.24
2018-02-27T04:48:15.986Z,1010.25
2018-02-27T04:49:15.994Z,1010.22
2018-02-27T04:50:15.999Z,1010.23
2018-02-27T04:51:16.008Z,1010.18
2018-02-27T04:52:16.013Z,1010.23
2018-02-27T04:53:16.022Z,1010.19
2018-02-27T04:54:16.026Z,1010.21
2018-02-27T04:55:16.032Z,1010.2
2018-02-27T04:56:16.040Z,1010.19
2018-02-27T04:57:16.047Z,1010.17
2018-02-27T04:58:16.054Z,1010.17
2018-02-27T04:59:16.059Z,1010.17
2018-02-27T05:00:16.066Z,1010.17
2018-02-27T05:01:16.073Z,1010.19
2018-02-27T05:02:16.081Z,1010.14
2018-02-27T05:03:16.088Z,1010.19
2018-02-27T05:04:16.095Z,1010.18
2018-02-27T05:05:16.102Z,1010.14
2018-02-27T05:06:16.107Z,1010.15
2018-02-27T05:07:16.112Z,1010.1
2018-02-27T05:08:16.118Z,1010.12
2018-02-27T05:09:16.126Z,1010.11
2018-02-27T05:10:16.133Z,1010.1
2018-02-27T05:11:16.140Z,1010.12
2018-02-27T05:12:16.146Z,1010.13
2018-02-27T05:13:16.203Z,1010.09
2018-02-27T05:14:16.159Z,1010.1
2018-02-27T05:15:16.166Z,1010.09
2018-02-27T05:16:16.175Z,1010.06
2018-02-27T05:17:16.178Z,1010.07
2018-02-27T05:18:16.184Z,1010.04
2018-02-27T05:19:16.193Z,1010.01
2018-02-27T05:20:16.205Z,1010.08
2018-02-27T05:21:16.205Z,1010.04
2018-02-27T05:22:16.212Z,1009.98
2018-02-27T05:23:16.269Z,1010.06
2018-02-27T05:24:16.225Z,1010.03
2018-02-27T05:25:16.232Z,1010
2018-02-27T05:26:16.238Z,1009.99
2018-02-27T05:27:16.245Z,1009.96
2018-02-27T05:28:16.301Z,1009.97
2018-02-27T05:29:16.258Z,1009.96
2018-02-27T05:30:16.265Z,1010.01
2018-02-27T05:31:16.272Z,1009.98
2018-02-27T05:32:16.277Z,1009.94
2018-02-27T05:33:16.284Z,1009.95
2018-02-27T05:34:16.290Z,1009.96
2018-02-27T05:35:16.298Z,1009.95
2018-02-27T05:36:16.303Z,1009.98
2018-02-27T05:37:16.312Z,1009.98
2018-02-27T05:38:16.317Z,1009.96
2018-02-27T05:39:16.323Z,1009.97
2018-02-27T05:40:16.332Z,1009.96
2018-02-27T05:41:16.336Z,1009.99
2018-02-27T05:42:16.343Z,1009.97
2018-02-27T05:43:16.349Z,1009.96
2018-02-27T05:44:16.357Z,1010
2018-02-27T05:45:16.363Z,1010
2018-02-27T05:46:16.370Z,1009.99
2018-02-27T05:47:16.376Z,1010
2018-02-27T05:48:16.383Z,1010
2018-02-27T05:49:16.401Z,1009.99
2018-02-27T05:50:16.394Z,1009.98
2018-02-27T05:51:16.423Z,1010
2018-02-27T05:52:16.415Z,1010
2018-02-27T05:53:16.416Z,1009.99
2018-02-27T05:54:16.425Z,1009.97
2018-02-27T05:55:16.428Z,1010
2018-02-27T05:56:16.443Z,1010
2018-02-27T05:57:16.443Z,1010.03
2018-02-27T05:58:16.449Z,1010.05
2018-02-27T05:59:16.457Z,1010.04
2018-02-27T06:00:16.464Z,1010.04
2018-02-27T06:01:16.524Z,1010.04
2018-02-27T06:02:16.475Z,1010.05
2018-02-27T06:03:16.484Z,1010.04
2018-02-27T06:04:16.487Z,1010.07
2018-02-27T06:05:16.495Z,1010.07
2018-02-27T06:06:16.501Z,1010.04
2018-02-27T06:07:16.508Z,1010.06
2018-02-27T06:08:16.512Z,1010.05
2018-02-27T06:09:16.519Z,1010.03
2018-02-27T06:10:16.528Z,1010.06
2018-02-27T06:11:16.534Z,1010.06
2018-02-27T06:12:16.538Z,1010.05
2018-02-27T06:13:16.545Z,1010.1
2018-02-27T06:14:16.552Z,1010.05
2018-02-27T06:15:16.561Z,1010.08
2018-02-27T06:16:16.569Z,1010.02
2018-02-27T06:17:16.572Z,1010.04
2018-02-27T06:18:16.578Z,1010.07
2018-02-27T06:19:16.585Z,1010.09
2018-02-27T06:20:16.593Z,1010.09
2018-02-27T06:21:16.599Z,1010.09
2018-02-27T06:22:16.607Z,1010.07
2018-02-27T06:23:16.611Z,1010.06
2018-02-27T06:24:16.618Z,1010.06
2018-02-27T06:25:16.625Z,1010.09
2018-02-27T06:26:16.630Z,1010.1
2018-02-27T06:27:16.637Z,1010.06
2018-02-27T06:28:16.644Z,1010.06
2018-02-27T06:29:16.649Z,1010.07
2018-02-27T06:30:16.655Z,1010.06
2018-02-27T06:31:16.663Z,1010.07
2018-02-27T06:32:16.670Z,1010.04
2018-02-27T06:33:16.676Z,1010.05
2018-02-27T06:34:16.685Z,1010.08
2018-02-27T06:35:16.692Z,1010.06
2018-02-27T06:36:16.696Z,1010.11
2018-02-27T06:37:16.714Z,1010.06
2018-02-27T06:38:16.707Z,1010.03
2018-02-27T06:39:16.764Z,1010.04
2018-02-27T06:40:16.720Z,1010.03
2018-02-27T06:41:16.725Z,1010.04
2018-02-27T06:42:16.734Z,1010.04
2018-02-27T06:43:16.740Z,1010.04
2018-02-27T06:44:16.753Z,1010.03
2018-02-27T06:45:16.752Z,1010.04
2018-02-27T06:46:16.760Z,1010.05
2018-02-27T06:47:16.774Z,1010.07
2018-02-27T06:48:16.773Z,1010.06
2018-02-27T06:49:16.831Z,1010.09
2018-02-27T06:50:16.786Z,1010.08
2018-02-27T06:51:16.791Z,1010.08
2018-02-27T06:52:16.799Z,1010.06
2018-02-27T06:53:16.804Z,1010.04
2018-02-27T06:54:16.810Z,1010.11
2018-02-27T06:55:16.834Z,1010.07
2018-02-27T06:56:16.823Z,1010.13
2018-02-27T06:57:16.830Z,1010.11
2018-02-27T06:58:16.838Z,1010.09
2018-02-27T06:59:16.844Z,1010.11
2018-02-27T07:00:16.852Z,1010.07
2018-02-27T07:01:16.861Z,1010.09
2018-02-27T07:02:16.865Z,1010.05
2018-02-27T07:03:16.868Z,1010.09
2018-02-27T07:04:16.876Z,1010.05
2018-02-27T07:05:16.881Z,1010.05
2018-02-27T07:06:16.905Z,1010
2018-02-27T07:07:16.896Z,1010.01
2018-02-27T07:08:16.902Z,1010
2018-02-27T07:09:16.974Z,1010.01
2018-02-27T07:10:16.918Z,1010
2018-02-27T07:11:16.920Z,1009.99
2018-02-27T07:12:16.927Z,1010.01
2018-02-27T07:13:16.935Z,1010
2018-02-27T07:14:16.993Z,1010.01
2018-02-27T07:15:16.962Z,1009.97
2018-02-27T07:16:16.954Z,1009.96
2018-02-27T07:17:16.961Z,1009.96
2018-02-27T07:18:16.967Z,1009.94
2018-02-27T07:19:16.973Z,1009.97
2018-02-27T07:20:16.986Z,1009.96
2018-02-27T07:21:16.989Z,1009.94
2018-02-27T07:22:16.994Z,1009.99
2018-02-27T07:23:17.000Z,1010.01
2018-02-27T07:24:17.007Z,1009.99
2018-02-27T07:25:17.016Z,1010.02
2018-02-27T07:26:17.021Z,1010.01
2018-02-27T07:27:17.027Z,1010
2018-02-27T07:28:17.034Z,1010
2018-02-27T07:29:17.040Z,1010
2018-02-27T07:30:17.047Z,1009.98
2018-02-27T07:31:17.055Z,1010
2018-02-27T07:32:17.059Z,1010.02
2018-02-27T07:33:17.066Z,1010
2018-02-27T07:34:17.075Z,1009.96
2018-02-27T07:35:17.127Z,1009.98
2018-02-27T07:36:17.088Z,1009.98
2018-02-27T07:37:17.094Z,1009.95
2018-02-27T07:38:17.099Z,1009.94
2018-02-27T07:39:17.107Z,1009.94
2018-02-27T07:40:17.113Z,1009.96
2018-02-27T07:41:17.121Z,1009.91
2018-02-27T07:42:17.128Z,1009.95
2018-02-27T07:43:17.132Z,1009.89
2018-02-27T07:44:17.143Z,1009.93
2018-02-27T07:45:17.147Z,1009.89
2018-02-27T07:46:17.153Z,1009.9
2018-02-27T07:47:17.170Z,1009.89
2018-02-27T07:48:17.169Z,1009.9
2018-02-27T07:49:17.175Z,1009.91
2018-02-27T07:50:17.183Z,1009.86
2018-02-27T07:51:17.190Z,1009.89
2018-02-27T07:52:17.195Z,1009.91
2018-02-27T07:53:17.201Z,1009.92
2018-02-27T07:54:17.208Z,1009.88
2018-02-27T07:55:17.214Z,1009.92
2018-02-27T07:56:17.221Z,1009.93
2018-02-27T07:57:17.229Z,1009.94
2018-02-27T07:58:17.234Z,1009.93
2018-02-27T07:59:17.244Z,1009.94
2018-02-27T08:00:17.249Z,1009.93
2018-02-27T08:01:17.255Z,1009.91
2018-02-27T08:02:17.264Z,1009.91
2018-02-27T08:03:17.275Z,1009.87
2018-02-27T08:04:17.280Z,1009.88
2018-02-27T08:05:17.283Z,1009.86
2018-02-27T08:06:17.288Z,1009.84
2018-02-27T08:07:17.295Z,1009.8
2018-02-27T08:08:17.303Z,1009.84
2018-02-27T08:09:17.310Z,1009.85
2018-02-27T08:10:17.317Z,1009.88
2018-02-27T08:11:17.326Z,1009.88
2018-02-27T08:12:17.331Z,1009.86
2018-02-27T08:13:17.341Z,1009.85
2018-02-27T08:14:17.344Z,1009.84
2018-02-27T08:15:17.351Z,1009.85
2018-02-27T08:16:17.366Z,1009.89
2018-02-27T08:17:17.366Z,1009.86
2018-02-27T08:18:17.373Z,1009.89
2018-02-27T08:19:17.380Z,1009.87
2018-02-27T08:20:17.385Z,1009.85
2018-02-27T08:21:17.395Z,1009.84
2018-02-27T08:22:17.403Z,1009.85
2018-02-27T08:23:17.407Z,1009.8
2018-02-27T08:24:17.416Z,1009.79
2018-02-27T08:25:17.420Z,1009.8
2018-02-27T08:26:17.428Z,1009.76
2018-02-27T08:27:17.440Z,1009.73
2018-02-27T08:28:17.442Z,1009.73
2018-02-27T08:29:17.448Z,1009.75
2018-02-27T08:30:17.457Z,1009.7
2018-02-27T08:31:17.462Z,1009.67
2018-02-27T08:32:17.468Z,1009.66
2018-02-27T08:33:17.478Z,1009.7
2018-02-27T08:34:17.484Z,1009.72
2018-02-27T08:35:17.492Z,1009.67
2018-02-27T08:36:17.503Z,1009.72
2018-02-27T08:37:17.505Z,1009.69
2018-02-27T08:38:17.512Z,1009.67
2018-02-27T08:39:17.522Z,1009.68
2018-02-27T08:40:17.527Z,1009.66
2018-02-27T08:41:17.536Z,1009.64
2018-02-27T08:42:17.541Z,1009.66
2018-02-27T08:43:17.553Z,1009.55
2018-02-27T08:44:17.613Z,1009.6
2018-02-27T08:45:17.563Z,1009.61
2018-02-27T08:46:17.569Z,1009.62
2018-02-27T08:47:17.577Z,1009.6
2018-02-27T08:48:17.585Z,1009.6
2018-02-27T08:49:17.591Z,1009.58
2018-02-27T08:50:17.601Z,1009.62
2018-02-27T08:51:17.616Z,1009.67
2018-02-27T08:52:17.616Z,1009.64
2018-02-27T08:53:17.621Z,1009.6
2018-02-27T08:54:17.628Z,1009.58
2018-02-27T08:55:17.636Z,1009.57
2018-02-27T08:56:17.644Z,1009.59
2018-02-27T08:57:17.648Z,1009.58
2018-02-27T08:58:17.660Z,1009.6
2018-02-27T08:59:17.670Z,1009.58
2018-02-27T09:00:17.671Z,1009.58
2018-02-27T09:01:17.678Z,1009.57
2018-02-27T09:02:17.687Z,1009.56
2018-02-27T09:03:17.695Z,1009.53
2018-02-27T09:04:17.701Z,1009.52
2018-02-27T09:05:17.760Z,1009.51
2018-02-27T09:06:17.719Z,1009.5
2018-02-27T09:07:17.724Z,1009.5
2018-02-27T09:08:17.733Z,1009.51
2018-02-27T09:09:17.741Z,1009.5
2018-02-27T09:10:17.753Z,1009.53
2018-02-27T09:11:17.756Z,1009.45
2018-02-27T09:12:17.764Z,1009.46
2018-02-27T09:13:17.769Z,1009.44
2018-02-27T09:14:17.778Z,1009.36
2018-02-27T09:15:17.837Z,1009.38
2018-02-27T09:16:17.801Z,1009.45
2018-02-27T09:17:17.805Z,1009.4
2018-02-27T09:18:17.807Z,1009.41
2018-02-27T09:19:17.861Z,1009.38
2018-02-27T09:20:17.831Z,1009.39
2018-02-27T09:21:17.831Z,1009.38
2018-02-27T09:22:17.839Z,1009.38
2018-02-27T09:23:17.849Z,1009.34
2018-02-27T09:24:17.856Z,1009.35
2018-02-27T09:25:17.867Z,1009.33
2018-02-27T09:26:17.870Z,1009.29
2018-02-27T09:27:17.876Z,1009.28
2018-02-27T09:28:17.890Z,1009.24
2018-02-27T09:29:17.896Z,1009.31
2018-02-27T09:30:17.904Z,1009.3
2018-02-27T09:31:17.930Z,1009.29
2018-02-27T09:32:17.918Z,1009.24
2018-02-27T09:33:17.924Z,1009.26
2018-02-27T09:34:17.932Z,1009.28
2018-02-27T09:35:17.940Z,1009.28
2018-02-27T09:36:17.949Z,1009.24
2018-02-27T09:37:17.956Z,1009.22
2018-02-27T09:38:17.970Z,1009.25
2018-02-27T09:39:17.972Z,1009.23
2018-02-27T09:40:17.979Z,1009.23
2018-02-27T09:41:17.988Z,1009.24
2018-02-27T09:42:17.997Z,1009.17
2018-02-27T09:43:18.005Z,1009.2
2018-02-27T09:44:18.016Z,1009.23
2018-02-27T09:45:18.019Z,1009.15
2018-02-27T09:46:18.029Z,1009.22
2018-02-27T09:47:18.037Z,1009.21
2018-02-27T09:48:18.044Z,1009.19
2018-02-27T09:49:18.054Z,1009.19
2018-02-27T09:50:18.060Z,1009.19
2018-02-27T09:51:18.118Z,1009.19
2018-02-27T09:52:18.077Z,1009.16
2018-02-27T09:53:18.085Z,1009.19
2018-02-27T09:54:18.093Z,1009.18
2018-02-27T09:55:18.100Z,1009.15
2018-02-27T09:56:18.108Z,1009.16
2018-02-27T09:57:18.122Z,1009.17
2018-02-27T09:58:18.126Z,1009.19
2018-02-27T09:59:18.135Z,1009.17
2018-02-27T10:00:18.144Z,1009.2
2018-02-27T10:01:18.203Z,1009.19
2018-02-27T10:02:18.160Z,1009.17
2018-02-27T10:03:18.167Z,1009.18
2018-02-27T10:04:18.176Z,1009.19
2018-02-27T10:05:18.185Z,1009.23
2018-02-27T10:06:18.199Z,1009.21
2018-02-27T10:07:18.204Z,1009.18
2018-02-27T10:08:18.210Z,1009.19
2018-02-27T10:09:18.217Z,1009.17
2018-02-27T10:10:18.226Z,1009.15
2018-02-27T10:11:18.235Z,1009.1
2018-02-27T10:12:18.242Z,1009.14
2018-02-27T10:13:18.250Z,1009.13
2018-02-27T10:14:18.261Z,1009.13
2018-02-27T10:15:18.268Z,1009.16
2018-02-27T10:16:18.277Z,1009.15
2018-02-27T10:17:18.287Z,1009.13
2018-02-27T10:18:18.295Z,1009.16
2018-02-27T10:19:18.307Z,1009.17
2018-02-27T10:20:18.312Z,1009.14
2018-02-27T10:21:18.321Z,1009.15
2018-02-27T10:22:18.329Z,1009.15
2018-02-27T10:23:18.337Z,1009.18
2018-02-27T10:24:18.346Z,1009.2
2018-02-27T10:25:18.355Z,1009.21
2018-02-27T10:26:18.364Z,1009.18
2018-02-27T10:27:18.373Z,1009.12
2018-02-27T10:28:18.380Z,1009.19
2018-02-27T10:29:18.394Z,1009.12
2018-02-27T10:30:18.398Z,1009.1
2018-02-27T10:31:18.409Z,1009.12
2018-02-27T10:32:18.415Z,1009.09
2018-02-27T10:33:18.424Z,1009.13
2018-02-27T10:34:18.438Z,1009.09
2018-02-27T10:35:18.440Z,1009.12
2018-02-27T10:36:18.450Z,1009.09
2018-02-27T10:37:18.460Z,1009.1
2018-02-27T10:38:18.468Z,1009.09
2018-02-27T10:39:18.476Z,1009.03
2018-02-27T10:40:18.487Z,1009.07
2018-02-27T10:41:18.494Z,1009.07
2018-02-27T10:42:18.504Z,1009.04
2018-02-27T10:43:18.514Z,1009.08
2018-02-27T10:44:18.522Z,1009.03
2018-02-27T10:45:18.561Z,1009.01
2018-02-27T10:46:18.543Z,1009.04
2018-02-27T10:47:18.548Z,1009.05
2018-02-27T10:48:18.561Z,1009.09
2018-02-27T10:49:18.569Z,1009.01
2018-02-27T10:50:18.577Z,1009.04
2018-02-27T10:51:18.585Z,1009.02
2018-02-27T10:52:18.594Z,1008.92
2018-02-27T10:53:18.603Z,1008.97
2018-02-27T10:54:18.614Z,1008.96
2018-02-27T10:55:18.622Z,1008.98
2018-02-27T10:56:18.632Z,1008.99
2018-02-27T10:57:18.639Z,1008.93
2018-02-27T10:58:18.649Z,1008.91
2018-02-27T10:59:18.659Z,1008.96
2018-02-27T11:00:18.668Z,1008.95
2018-02-27T11:01:18.676Z,1008.94
2018-02-27T11:02:18.686Z,1008.92
2018-02-27T11:03:18.696Z,1008.94
2018-02-27T11:04:18.704Z,1008.93
2018-02-27T11:05:18.715Z,1008.88
2018-02-27T11:06:18.725Z,1008.89
2018-02-27T11:07:18.733Z,1008.88
2018-02-27T11:08:18.743Z,1008.87
2018-02-27T11:09:18.752Z,1008.92
2018-02-27T11:10:18.764Z,1008.91
2018-02-27T11:11:18.771Z,1008.87
2018-02-27T11:12:18.783Z,1008.86
2018-02-27T11:13:18.789Z,1008.85
2018-02-27T11:14:18.800Z,1008.88
2018-02-27T11:15:18.807Z,1008.83
2018-02-27T11:16:18.817Z,1008.84
2018-02-27T11:17:18.827Z,1008.84
2018-02-27T11:18:18.837Z,1008.81
2018-02-27T11:19:18.846Z,1008.81
2018-02-27T11:20:18.855Z,1008.83
2018-02-27T11:21:18.870Z,1008.87
2018-02-27T11:22:18.876Z,1008.84
2018-02-27T11:23:18.884Z,1008.83
2018-02-27T11:24:18.893Z,1008.84
2018-02-27T11:25:18.905Z,1008.84
2018-02-27T11:26:18.912Z,1008.84
2018-02-27T11:27:18.922Z,1008.83
2018-02-27T11:28:18.934Z,1008.85
2018-02-27T11:29:18.942Z,1008.83
2018-02-27T11:30:18.951Z,1008.84
2018-02-27T11:31:18.962Z,1008.79
2018-02-27T11:32:18.974Z,1008.76
2018-02-27T11:33:18.981Z,1008.78
2018-02-27T11:34:18.989Z,1008.77
2018-02-27T11:35:18.999Z,1008.72
2018-02-27T11:36:19.013Z,1008.76
2018-02-27T11:37:19.068Z,1008.77
2018-02-27T11:38:19.029Z,1008.71
2018-02-27T11:39:19.040Z,1008.73
2018-02-27T11:40:19.049Z,1008.68
2018-02-27T11:41:19.060Z,1008.72
2018-02-27T11:42:19.069Z,1008.75
2018-02-27T11:43:19.080Z,1008.74
2018-02-27T11:44:19.091Z,1008.73
2018-02-27T11:45:19.103Z,1008.68
2018-02-27T11:46:19.110Z,1008.67
2018-02-27T11:47:19.117Z,1008.66
2018-02-27T11:48:19.128Z,1008.65
2018-02-27T11:49:19.142Z,1008.67
2018-02-27T11:50:19.149Z,1008.61
2018-02-27T11:51:19.158Z,1008.58
2018-02-27T11:52:19.168Z,1008.63
2018-02-27T11:53:19.179Z,1008.58
2018-02-27T11:54:19.189Z,1008.53
2018-02-27T11:55:19.226Z,1008.59
2018-02-27T11:56:19.208Z,1008.54
2018-02-27T11:57:19.219Z,1008.59
2018-02-27T11:58:19.231Z,1008.56
2018-02-27T11:59:19.238Z,1008.61
2018-02-27T12:00:19.249Z,1008.56
2018-02-27T12:01:19.258Z,1008.55
2018-02-27T12:02:19.337Z,1008.47
2018-02-27T12:03:19.279Z,1008.45
2018-02-27T12:04:19.290Z,1008.52
2018-02-27T12:05:19.299Z,1008.44
2018-02-27T12:06:19.312Z,1008.44
2018-02-27T12:07:19.318Z,1008.47
2018-02-27T12:08:19.330Z,1008.48
2018-02-27T12:09:19.340Z,1008.4